createdAt,value
2022-10-17T00:01:20.170Z,100157.31
2022-10-17T00:03:48.616Z,100168.44
2022-10-17T00:06:17.587Z,100164.06
2022-10-17T00:08:46.419Z,100157.94
2022-10-17T00:11:19.011Z,100157.78
2022-10-17T00:13:51.785Z,100155.78
2022-10-17T00:16:25.960Z,100152.06
2022-10-17T00:18:54.498Z,100152.53
2022-10-17T00:21:25.178Z,100136.47
2022-10-17T00:23:54.409Z,100143.13
2022-10-17T00:26:23.645Z,100134.84
2022-10-17T00:28:55.067Z,100125.34
2022-10-17T00:31:25.862Z,100132.44
2022-10-17T00:33:54.722Z,100130.69
2022-10-17T00:36:26.403Z,100133.13
2022-10-17T00:38:58.629Z,100145.53
2022-10-17T00:41:31.574Z,100142.53
2022-10-17T00:44:04.258Z,100136.59
2022-10-17T00:46:38.836Z,100133.00
2022-10-17T00:49:13.319Z,100131.22
2022-10-17T00:51:46.548Z,100129.09
2022-10-17T00:54:18.725Z,100130.53
2022-10-17T00:56:49.354Z,100130.56
2022-10-17T00:59:22.620Z,100133.66
2022-10-17T01:02:02.221Z,100123.94
2022-10-17T01:04:30.838Z,100129.44
2022-10-17T01:06:59.456Z,100124.38
2022-10-17T01:09:28.690Z,100120.13
2022-10-17T01:12:05.959Z,100107.66
2022-10-17T01:14:51.577Z,100110.16
2022-10-17T01:17:31.174Z,100108.13
2022-10-17T01:20:37.696Z,100104.69
2022-10-17T01:23:34.894Z,100104.09
2022-10-17T01:26:15.066Z,100118.94
2022-10-17T01:29:35.106Z,100116.69
2022-10-17T01:32:10.988Z,100109.00
2022-10-17T01:34:47.427Z,100112.06
2022-10-17T01:37:22.501Z,100111.19
2022-10-17T01:40:00.098Z,100114.81
2022-10-17T01:42:41.332Z,100117.53
2022-10-17T01:45:15.695Z,100109.59
2022-10-17T01:47:51.761Z,100101.50
2022-10-17T01:50:26.771Z,100097.84
2022-10-17T01:53:00.187Z,100103.53
2022-10-17T01:55:33.569Z,100105.56
2022-10-17T01:58:07.032Z,100093.72
2022-10-17T02:00:37.970Z,100094.16
2022-10-17T02:03:13.376Z,100092.34
2022-10-17T02:05:43.976Z,100088.06
2022-10-17T02:08:13.167Z,100090.09
2022-10-17T02:10:48.540Z,100090.53
2022-10-17T02:13:29.012Z,100079.34
2022-10-17T02:16:22.094Z,100077.88
2022-10-17T02:19:17.953Z,100087.09
2022-10-17T02:21:56.262Z,100087.66
2022-10-17T02:24:34.435Z,100083.88
2022-10-17T02:27:13.047Z,100087.91
2022-10-17T02:29:49.872Z,100082.31
2022-10-17T02:32:25.850Z,100083.13
2022-10-17T02:34:59.899Z,100080.19
2022-10-17T02:37:31.296Z,100086.56
2022-10-17T02:40:01.937Z,100080.69
2022-10-17T02:42:32.146Z,100073.22
2022-10-17T02:45:02.985Z,100082.41
2022-10-17T02:47:37.863Z,100078.03
2022-10-17T02:50:10.377Z,100079.47
2022-10-17T02:52:47.201Z,100079.03
2022-10-17T02:55:20.238Z,100076.59
2022-10-17T02:57:54.831Z,100081.06
2022-10-17T03:00:25.132Z,100079.41
2022-10-17T03:02:55.924Z,100080.69
2022-10-17T03:05:29.708Z,100079.91
2022-10-17T03:07:58.545Z,100075.00
2022-10-17T03:10:27.562Z,100083.81
2022-10-17T03:12:56.794Z,100084.38
2022-10-17T03:15:25.665Z,100083.97
2022-10-17T03:17:54.628Z,100089.22
2022-10-17T03:20:25.977Z,100091.97
2022-10-17T03:22:54.532Z,100094.41
2022-10-17T03:25:23.566Z,100098.13
2022-10-17T03:27:52.109Z,100101.56
2022-10-17T03:30:20.923Z,100105.66
2022-10-17T03:32:49.811Z,100093.44
2022-10-17T03:35:18.850Z,100099.94
2022-10-17T03:37:52.319Z,100105.44
2022-10-17T03:40:22.611Z,100104.00
2022-10-17T03:42:51.848Z,100105.41
2022-10-17T03:45:21.982Z,100118.63
2022-10-17T03:47:50.776Z,100119.41
2022-10-17T03:50:19.541Z,100112.16
2022-10-17T03:52:49.214Z,100114.81
2022-10-17T03:55:19.261Z,100114.59
2022-10-17T03:57:47.813Z,100121.34
2022-10-17T04:00:18.435Z,100123.69
2022-10-17T04:02:55.085Z,100121.44
2022-10-17T04:05:23.443Z,100124.31
2022-10-17T04:07:52.158Z,100126.72
2022-10-17T04:10:28.112Z,100121.81
2022-10-17T04:12:56.934Z,100123.81
2022-10-17T04:15:25.501Z,100113.41
2022-10-17T04:17:53.932Z,100113.41
2022-10-17T04:20:22.245Z,100112.25
2022-10-17T04:22:50.846Z,100121.16
2022-10-17T04:25:19.854Z,100121.28
2022-10-17T04:27:51.646Z,100129.00
2022-10-17T04:30:21.163Z,100127.28
2022-10-17T04:32:49.925Z,100125.78
2022-10-17T04:35:22.986Z,100131.13
2022-10-17T04:38:01.910Z,100120.94
2022-10-17T04:40:30.932Z,100120.34
2022-10-17T04:43:02.240Z,100109.59
2022-10-17T04:45:36.989Z,100108.06
2022-10-17T04:48:07.561Z,100124.19
2022-10-17T04:50:36.093Z,100123.25
2022-10-17T04:53:20.069Z,100122.66
2022-10-17T04:55:49.608Z,100127.66
2022-10-17T04:58:20.148Z,100130.16
2022-10-17T05:00:48.901Z,100125.94
2022-10-17T05:03:24.401Z,100131.16
2022-10-17T05:05:52.755Z,100133.84
2022-10-17T05:08:21.269Z,100137.03
2022-10-17T05:10:50.123Z,100142.94
2022-10-17T05:13:20.069Z,100142.19
2022-10-17T05:15:49.296Z,100138.75
2022-10-17T05:18:17.747Z,100152.72
2022-10-17T05:20:46.329Z,100154.97
2022-10-17T05:23:14.822Z,100151.09
2022-10-17T05:25:44.936Z,100156.50
2022-10-17T05:28:13.900Z,100157.78
2022-10-17T05:30:45.781Z,100152.72
2022-10-17T05:33:14.209Z,100156.41
2022-10-17T05:35:42.616Z,100149.56
2022-10-17T05:38:12.026Z,100148.69
2022-10-17T05:40:43.133Z,100151.28
2022-10-17T05:43:11.669Z,100159.41
2022-10-17T05:45:40.537Z,100167.06
2022-10-17T05:48:14.856Z,100162.63
2022-10-17T05:50:43.435Z,100153.75
2022-10-17T05:53:17.012Z,100166.84
2022-10-17T05:55:58.283Z,100152.88
2022-10-17T06:01:36.363Z,100148.97
2022-10-17T06:04:06.673Z,100157.78
2022-10-17T06:06:37.520Z,100160.66
2022-10-17T06:09:06.793Z,100165.19
2022-10-17T06:11:38.516Z,100163.97
2022-10-17T06:14:08.643Z,100163.34
2022-10-17T06:16:38.727Z,100170.34
2022-10-17T06:19:08.610Z,100171.50
2022-10-17T06:21:38.994Z,100173.03
2022-10-17T06:24:15.972Z,100177.94
2022-10-17T06:26:45.238Z,100172.84
2022-10-17T06:29:16.871Z,100175.47
2022-10-17T06:31:49.650Z,100173.84
2022-10-17T06:34:19.831Z,100175.16
2022-10-17T06:37:01.054Z,100184.91
2022-10-17T06:39:33.901Z,100178.47
2022-10-17T06:42:08.467Z,100183.84
2022-10-17T06:44:49.557Z,100176.03
2022-10-17T06:47:44.652Z,100180.19
2022-10-17T06:50:43.308Z,100186.81
2022-10-17T06:53:18.748Z,100183.16
2022-10-17T06:55:54.047Z,100185.69
2022-10-17T06:58:31.612Z,100184.91
2022-10-17T07:01:15.829Z,100184.41
2022-10-17T07:03:50.146Z,100181.56
2022-10-17T07:06:20.422Z,100184.66
2022-10-17T07:08:50.445Z,100184.03
2022-10-17T07:11:22.484Z,100178.78
2022-10-17T07:13:53.227Z,100184.47
2022-10-17T07:16:23.412Z,100189.94
2022-10-17T07:19:03.968Z,100190.31
2022-10-17T07:21:39.345Z,100198.75
2022-10-17T07:24:10.451Z,100191.59
2022-10-17T07:26:40.248Z,100202.50
2022-10-17T07:29:09.010Z,100206.91
2022-10-17T07:31:57.597Z,100209.94
2022-10-17T07:34:27.755Z,100223.25
2022-10-17T07:36:57.980Z,100225.03
2022-10-17T07:39:26.662Z,100221.09
2022-10-17T07:41:55.059Z,100226.59
2022-10-17T07:44:25.157Z,100225.50
2022-10-17T07:46:54.704Z,100227.38
2022-10-17T07:49:23.448Z,100242.09
2022-10-17T07:51:51.798Z,100250.47
2022-10-17T07:54:21.887Z,100247.22
2022-10-17T07:56:50.785Z,100254.66
2022-10-17T07:59:20.430Z,100252.69
2022-10-17T08:01:50.036Z,100263.47
2022-10-17T08:04:18.367Z,100266.31
2022-10-17T08:06:47.225Z,100246.34
2022-10-17T08:09:15.774Z,100261.50
2022-10-17T08:11:46.505Z,100260.88
2022-10-17T08:14:16.846Z,100264.22
2022-10-17T08:16:45.149Z,100265.47
2022-10-17T08:19:13.743Z,100266.09
2022-10-17T08:21:43.752Z,100277.53
2022-10-17T08:24:12.443Z,100279.59
2022-10-17T08:26:43.502Z,100280.38
2022-10-17T08:29:17.756Z,100291.53
2022-10-17T08:31:48.266Z,100292.28
2022-10-17T08:34:18.455Z,100294.13
2022-10-17T08:36:46.870Z,100290.28
2022-10-17T08:39:15.271Z,100300.75
2022-10-17T08:42:02.769Z,100312.19
2022-10-17T08:44:50.956Z,100308.50
2022-10-17T08:47:29.409Z,100307.53
2022-10-17T08:50:03.136Z,100312.66
2022-10-17T08:52:39.045Z,100314.13
2022-10-17T08:57:51.267Z,100323.66
2022-10-17T09:00:22.940Z,100323.81
2022-10-17T09:03:14.044Z,100339.69
2022-10-17T09:05:51.584Z,100354.84
2022-10-17T09:08:37.630Z,100343.22
2022-10-17T09:11:16.543Z,100357.69
2022-10-17T09:14:06.081Z,100347.13
2022-10-17T09:17:01.721Z,100349.22
2022-10-17T09:19:36.059Z,100350.44
2022-10-17T09:22:10.429Z,100354.91
2022-10-17T09:24:46.252Z,100349.56
2022-10-17T09:27:25.487Z,100356.13
2022-10-17T09:30:26.912Z,100363.06
2022-10-17T09:33:23.090Z,100368.81
2022-10-17T09:36:01.559Z,100370.09
2022-10-17T09:38:42.286Z,100371.88
2022-10-17T09:44:19.170Z,100374.94
2022-10-17T09:47:27.022Z,100380.22
2022-10-17T09:49:57.056Z,100383.09
2022-10-17T09:52:31.096Z,100388.47
2022-10-17T09:55:06.842Z,100391.31
2022-10-17T09:57:57.024Z,100400.53
2022-10-17T10:00:29.560Z,100399.47
2022-10-17T10:03:19.474Z,100394.97
2022-10-17T10:06:07.195Z,100391.53
2022-10-17T10:08:39.062Z,100403.56
2022-10-17T10:11:13.794Z,100418.81
2022-10-17T10:13:44.012Z,100425.81
2022-10-17T10:16:21.025Z,100426.47
2022-10-17T10:18:51.159Z,100431.56
2022-10-17T10:21:24.069Z,100433.38
2022-10-17T10:24:13.171Z,100425.19
2022-10-17T10:26:45.240Z,100429.25
2022-10-17T10:29:28.890Z,100417.66
2022-10-17T10:31:58.262Z,100410.91
2022-10-17T10:34:30.117Z,100416.66
2022-10-17T10:37:04.769Z,100408.97
2022-10-17T10:39:44.166Z,100399.63
2022-10-17T10:42:26.173Z,100405.56
2022-10-17T10:45:01.603Z,100422.13
2022-10-17T10:47:32.642Z,100435.00
2022-10-17T10:50:32.710Z,100433.94
2022-10-17T10:53:20.569Z,100421.94
2022-10-17T10:55:53.312Z,100436.44
2022-10-17T10:58:42.089Z,100427.25
2022-10-17T11:01:20.198Z,100438.06
2022-10-17T11:04:06.643Z,100439.91
2022-10-17T11:06:39.052Z,100458.16
2022-10-17T11:09:32.860Z,100454.25
2022-10-17T11:12:08.886Z,100451.38
2022-10-17T11:14:48.080Z,100457.31
2022-10-17T11:17:32.043Z,100468.75
2022-10-17T11:20:16.401Z,100472.00
2022-10-17T11:22:48.468Z,100475.72
2022-10-17T11:25:33.345Z,100492.91
2022-10-17T11:28:04.908Z,100498.41
2022-10-17T11:30:48.354Z,100509.19
2022-10-17T11:33:27.109Z,100519.41
2022-10-17T11:36:02.514Z,100514.66
2022-10-17T11:38:44.487Z,100515.72
2022-10-17T11:41:21.984Z,100510.41
2022-10-17T11:43:55.892Z,100527.53
2022-10-17T11:46:28.489Z,100523.91
2022-10-17T11:49:17.436Z,100523.50
2022-10-17T11:52:01.670Z,100527.78
2022-10-17T11:54:35.040Z,100520.50
2022-10-17T11:57:37.361Z,100506.19
2022-10-17T12:00:25.677Z,100513.69
2022-10-17T12:03:14.644Z,100512.06
2022-10-17T12:05:51.169Z,100513.72
2022-10-17T12:08:29.212Z,100526.97
2022-10-17T12:11:05.676Z,100524.97
2022-10-17T12:13:53.116Z,100522.53
2022-10-17T12:16:51.502Z,100530.91
2022-10-17T12:19:35.534Z,100528.41
2022-10-17T12:22:26.304Z,100525.75
2022-10-17T12:25:01.884Z,100527.97
2022-10-17T12:27:46.401Z,100535.75
2022-10-17T12:30:25.920Z,100537.03
2022-10-17T12:33:15.583Z,100537.88
2022-10-17T12:35:44.348Z,100534.31
2022-10-17T12:38:30.524Z,100546.38
2022-10-17T12:41:01.978Z,100546.84
2022-10-17T12:46:49.152Z,100557.59
2022-10-17T12:49:45.540Z,100549.19
2022-10-17T12:52:26.774Z,100554.16
2022-10-17T12:55:16.781Z,100552.50
2022-10-17T12:58:00.791Z,100560.63
2022-10-17T13:00:49.699Z,100554.50
2022-10-17T13:03:33.988Z,100559.59
2022-10-17T13:06:07.610Z,100556.34
2022-10-17T13:08:40.479Z,100563.53
2022-10-17T13:11:10.091Z,100561.03
2022-10-17T13:13:48.907Z,100561.88
2022-10-17T13:16:30.736Z,100570.03
2022-10-17T13:19:02.193Z,100571.69
2022-10-17T13:21:31.462Z,100569.66
2022-10-17T13:23:59.778Z,100567.28
2022-10-17T13:26:29.749Z,100572.13
2022-10-17T13:29:06.719Z,100571.38
2022-10-17T13:31:38.601Z,100578.13
2022-10-17T13:34:19.156Z,100577.94
2022-10-17T13:36:51.673Z,100584.34
2022-10-17T13:39:38.194Z,100589.03
2022-10-17T13:42:07.991Z,100582.00
2022-10-17T13:44:39.394Z,100587.44
2022-10-17T13:47:24.010Z,100590.00
2022-10-17T13:49:55.655Z,100582.53
2022-10-17T13:52:28.940Z,100583.56
2022-10-17T13:55:16.573Z,100583.09
2022-10-17T13:57:46.015Z,100590.84
2022-10-17T14:00:21.301Z,100593.63
2022-10-17T14:02:50.102Z,100598.16
2022-10-17T14:05:23.294Z,100604.09
2022-10-17T14:10:44.721Z,100614.75
2022-10-17T14:13:24.896Z,100622.06
2022-10-17T14:15:55.785Z,100626.09
2022-10-17T14:18:33.431Z,100625.94
2022-10-17T14:21:36.851Z,100629.53
2022-10-17T14:24:26.942Z,100630.91
2022-10-17T14:26:59.020Z,100646.75
2022-10-17T14:29:30.491Z,100644.84
2022-10-17T14:32:06.149Z,100649.00
2022-10-17T14:34:38.498Z,100650.28
2022-10-17T14:37:14.615Z,100643.00
2022-10-17T14:39:43.241Z,100643.69
2022-10-17T14:42:21.046Z,100645.13
2022-10-17T14:44:51.853Z,100651.81
2022-10-17T14:47:44.594Z,100653.09
2022-10-17T14:50:23.474Z,100648.31
2022-10-17T14:53:07.049Z,100660.47
2022-10-17T14:55:39.053Z,100673.72
2022-10-17T14:58:18.708Z,100671.19
2022-10-17T15:00:46.974Z,100651.38
2022-10-17T15:03:15.600Z,100655.97
2022-10-17T15:05:44.090Z,100668.00
2022-10-17T15:08:16.325Z,100682.88
2022-10-17T15:10:45.730Z,100694.22
2022-10-17T15:13:32.361Z,100692.59
2022-10-17T15:16:03.380Z,100705.53
2022-10-17T15:18:32.501Z,100707.31
2022-10-17T15:21:05.472Z,100716.22
2022-10-17T15:23:45.160Z,100716.47
2022-10-17T15:26:17.489Z,100715.19
2022-10-17T15:28:47.381Z,100721.56
2022-10-17T15:31:19.924Z,100739.78
2022-10-17T15:33:48.635Z,100751.59
2022-10-17T15:36:23.273Z,100755.56
2022-10-17T15:38:55.815Z,100762.94
2022-10-17T15:41:27.181Z,100772.00
2022-10-17T15:43:55.767Z,100785.09
2022-10-17T15:46:27.056Z,100797.88
2022-10-17T15:48:56.927Z,100803.53
2022-10-17T15:51:25.796Z,100818.81
2022-10-17T15:53:55.696Z,100834.88
2022-10-17T15:56:28.959Z,100840.34
2022-10-17T15:58:57.964Z,100845.94
2022-10-17T16:01:32.125Z,100845.13
2022-10-17T16:04:00.906Z,100847.47
2022-10-17T16:06:29.305Z,100847.19
2022-10-17T16:09:02.003Z,100851.31
2022-10-17T16:11:34.481Z,100846.56
2022-10-17T16:14:07.033Z,100847.41
2022-10-17T16:16:36.757Z,100836.34
2022-10-17T16:19:06.062Z,100854.19
2022-10-17T16:21:37.408Z,100882.44
2022-10-17T16:24:10.830Z,100889.06
2022-10-17T16:26:39.243Z,100882.50
2022-10-17T16:29:09.972Z,100873.53
2022-10-17T16:31:43.480Z,100879.78
2022-10-17T16:34:13.829Z,100881.94
2022-10-17T16:36:43.654Z,100892.63
2022-10-17T16:39:14.024Z,100899.09
2022-10-17T16:41:42.408Z,100895.81
2022-10-17T16:44:15.418Z,100896.41
2022-10-17T16:46:44.143Z,100897.06
2022-10-17T16:49:12.982Z,100896.75
2022-10-17T16:51:41.515Z,100909.47
2022-10-17T16:54:12.295Z,100909.84
2022-10-17T16:56:42.164Z,100903.72
2022-10-17T16:59:12.360Z,100902.91
2022-10-17T17:01:41.848Z,100897.91
2022-10-17T17:04:10.424Z,100895.50
2022-10-17T17:06:39.202Z,100895.97
2022-10-17T17:09:09.414Z,100883.56
2022-10-17T17:11:39.744Z,100894.44
2022-10-17T17:14:10.226Z,100890.19
2022-10-17T17:16:38.697Z,100892.00
2022-10-17T17:19:09.865Z,100885.88
2022-10-17T17:21:38.445Z,100883.25
2022-10-17T17:24:07.738Z,100894.97
2022-10-17T17:26:40.909Z,100900.47
2022-10-17T17:29:09.709Z,100904.38
2022-10-17T17:31:39.280Z,100896.50
2022-10-17T17:34:07.982Z,100893.53
2022-10-17T17:36:38.755Z,100913.00
2022-10-17T17:39:12.521Z,100906.41
2022-10-17T17:41:43.559Z,100903.59
2022-10-17T17:44:16.495Z,100915.31
2022-10-17T17:46:46.226Z,100913.66
2022-10-17T17:49:14.822Z,100907.72
2022-10-17T17:51:46.348Z,100913.81
2022-10-17T17:54:15.296Z,100908.72
2022-10-17T17:56:45.511Z,100906.88
2022-10-17T17:59:14.491Z,100903.94
2022-10-17T18:01:44.281Z,100912.69
2022-10-17T18:04:13.843Z,100914.00
2022-10-17T18:06:42.652Z,100921.09
2022-10-17T18:09:11.331Z,100928.53
2022-10-17T18:11:40.152Z,100927.19
2022-10-17T18:14:13.968Z,100934.06
2022-10-17T18:16:42.850Z,100944.44
2022-10-17T18:19:12.854Z,100950.63
2022-10-17T18:21:41.432Z,100960.25
2022-10-17T18:24:10.056Z,100954.13
2022-10-17T18:26:38.997Z,100954.94
2022-10-17T18:29:11.803Z,100960.34
2022-10-17T18:31:40.718Z,100951.31
2022-10-17T18:34:09.028Z,100946.25
2022-10-17T18:36:38.148Z,100955.94
2022-10-17T18:39:06.997Z,100950.38
2022-10-17T18:41:36.267Z,100950.69
2022-10-17T18:44:05.366Z,100937.69
2022-10-17T18:46:40.828Z,100938.41
2022-10-17T18:49:10.268Z,100939.00
2022-10-17T18:51:39.435Z,100947.63
2022-10-17T18:54:13.041Z,100946.47
2022-10-17T18:56:41.413Z,100958.28
2022-10-17T18:59:10.084Z,100967.47
2022-10-17T19:01:39.880Z,100970.56
2022-10-17T19:04:08.353Z,100964.03
2022-10-17T19:06:37.107Z,100957.84
2022-10-17T19:09:09.754Z,100954.88
2022-10-17T19:11:40.030Z,100962.50
2022-10-17T19:14:13.343Z,100957.53
2022-10-17T19:16:45.635Z,100972.84
2022-10-17T19:19:17.662Z,100975.16
2022-10-17T19:21:46.696Z,100980.94
2022-10-17T19:24:18.137Z,100981.44
2022-10-17T19:26:50.573Z,100984.06
2022-10-17T19:29:19.545Z,100987.84
2022-10-17T19:31:50.032Z,100974.94
2022-10-17T19:34:19.452Z,100985.81
2022-10-17T19:36:48.097Z,100991.41
2022-10-17T19:39:19.403Z,100988.13
2022-10-17T19:41:49.263Z,100978.22
2022-10-17T19:44:18.880Z,100977.44
2022-10-17T19:46:49.513Z,100982.25
2022-10-17T19:49:19.099Z,100978.81
2022-10-17T19:51:47.872Z,100977.47
2022-10-17T19:54:18.824Z,100974.19
2022-10-17T19:56:47.623Z,100978.63
2022-10-17T19:59:17.894Z,100975.34
2022-10-17T20:01:48.498Z,100974.69
2022-10-17T20:04:17.367Z,100971.06
2022-10-17T20:06:45.956Z,100965.63
2022-10-17T20:09:17.107Z,100969.09
2022-10-17T20:11:46.594Z,100954.59
2022-10-17T20:14:15.597Z,100951.94
2022-10-17T20:16:44.947Z,100955.75
2022-10-17T20:19:15.197Z,100958.53
2022-10-17T20:21:45.143Z,100951.94
2022-10-17T20:24:17.009Z,100953.41
2022-10-17T20:26:47.749Z,100953.09
2022-10-17T20:29:18.991Z,100948.31
2022-10-17T20:31:48.914Z,100964.16
2022-10-17T20:34:20.262Z,100958.19
2022-10-17T20:36:49.454Z,100960.53
2022-10-17T20:39:21.907Z,100973.41
2022-10-17T20:41:50.472Z,100967.13
2022-10-17T20:44:18.794Z,100970.91
2022-10-17T20:47:01.175Z,100978.19
2022-10-17T20:49:33.884Z,100980.00
2022-10-17T20:52:02.736Z,100983.28
2022-10-17T20:54:31.735Z,100976.50
2022-10-17T20:57:03.884Z,100979.47
2022-10-17T20:59:34.526Z,100987.56
2022-10-17T21:02:03.503Z,100988.53
2022-10-17T21:04:45.984Z,101008.47
2022-10-17T21:07:15.347Z,101015.56
2022-10-17T21:09:43.936Z,101010.00
2022-10-17T21:12:18.085Z,101014.31
2022-10-17T21:14:54.932Z,101010.84
2022-10-17T21:17:23.418Z,101021.22
2022-10-17T21:19:53.464Z,101017.59
2022-10-17T21:22:22.129Z,101014.31
2022-10-17T21:24:50.562Z,101024.81
2022-10-17T21:27:20.499Z,101031.25
2022-10-17T21:29:49.435Z,101022.03
2022-10-17T21:32:31.942Z,101024.03
2022-10-17T21:35:09.403Z,101023.34
2022-10-17T21:37:38.172Z,101021.88
2022-10-17T21:40:08.232Z,101024.69
2022-10-17T21:42:36.855Z,101017.22
2022-10-17T21:45:15.357Z,101016.59
2022-10-17T21:48:11.164Z,101019.56
2022-10-17T21:50:35.901Z,101018.91
2022-10-17T21:53:05.684Z,101029.44
2022-10-17T21:55:39.429Z,101024.19
2022-10-17T21:58:07.825Z,101022.69
2022-10-17T22:00:36.161Z,101022.50
2022-10-17T22:03:05.863Z,101019.25
2022-10-17T22:05:36.264Z,101016.59
2022-10-17T22:08:05.086Z,101026.44
2022-10-17T22:10:33.573Z,101025.28
2022-10-17T22:13:02.276Z,101017.22
2022-10-17T22:15:31.841Z,101021.19
2022-10-17T22:18:00.464Z,101019.59
2022-10-17T22:20:29.261Z,101012.94
2022-10-17T22:22:59.155Z,101024.03
2022-10-17T22:25:27.711Z,101009.69
2022-10-17T22:27:56.543Z,101012.47
2022-10-17T22:30:25.515Z,101023.50
2022-10-17T22:32:54.034Z,101022.31
2022-10-17T22:35:23.908Z,101020.69
2022-10-17T22:37:52.434Z,101018.84
2022-10-17T22:40:22.246Z,101025.97
2022-10-17T22:42:50.448Z,101018.06
2022-10-17T22:45:21.838Z,101025.97
2022-10-17T22:47:50.594Z,101023.34
2022-10-17T22:50:19.206Z,101021.16
2022-10-17T22:52:47.687Z,101024.22
2022-10-17T22:55:16.575Z,101026.44
2022-10-17T22:57:46.300Z,101022.19
2022-10-17T23:00:15.247Z,101017.09
2022-10-17T23:02:44.247Z,101022.69
2022-10-17T23:05:13.091Z,101014.91
2022-10-17T23:07:41.509Z,101019.41
2022-10-17T23:10:11.087Z,101018.56
2022-10-17T23:12:39.634Z,101015.78
2022-10-17T23:15:11.254Z,101007.53
2022-10-17T23:17:39.692Z,101008.69
2022-10-17T23:20:09.412Z,101010.19
2022-10-17T23:22:38.122Z,101010.34
2022-10-17T23:25:07.741Z,101008.34
2022-10-17T23:27:36.450Z,101012.28
2022-10-17T23:30:11.705Z,101001.59
2022-10-17T23:32:40.307Z,101014.91
2022-10-17T23:35:10.372Z,100999.13
2022-10-17T23:37:39.357Z,100987.88
2022-10-17T23:40:12.329Z,101004.22
2022-10-17T23:42:40.942Z,100995.00
2022-10-17T23:45:12.597Z,101013.50
2022-10-17T23:47:41.079Z,101016.81
2022-10-17T23:50:12.589Z,101014.75
2022-10-17T23:52:41.189Z,101009.31
2022-10-17T23:55:11.082Z,101018.44
2022-10-17T23:57:39.789Z,101011.88
